createdAt,value
2018-03-22T00:02:22.472Z,79.94
2018-03-22T00:04:49.947Z,80.17
2018-03-22T00:07:17.410Z,80.81
2018-03-22T00:09:44.903Z,81.15
2018-03-22T00:12:12.358Z,80.84
2018-03-22T00:14:39.819Z,81.43
2018-03-22T00:17:07.306Z,81.59
2018-03-22T00:19:34.766Z,81.58
2018-03-22T00:22:02.278Z,81.90
2018-03-22T00:24:29.749Z,81.75
2018-03-22T00:26:57.210Z,82.12
2018-03-22T00:29:24.692Z,82.42
2018-03-22T00:31:52.150Z,81.85
2018-03-22T00:34:19.778Z,81.95
2018-03-22T00:36:47.245Z,81.31
2018-03-22T00:39:14.745Z,81.17
2018-03-22T00:41:42.181Z,80.85
2018-03-22T00:44:09.629Z,80.56
2018-03-22T00:46:37.102Z,80.13
2018-03-22T00:49:04.553Z,80.07
2018-03-22T00:51:32.022Z,80.05
2018-03-22T00:53:59.490Z,80.68
2018-03-22T00:56:26.941Z,81.04
2018-03-22T00:58:54.421Z,80.42
2018-03-22T01:01:21.876Z,80.85
2018-03-22T01:03:49.349Z,81.16
2018-03-22T01:06:16.817Z,81.32
2018-03-22T01:08:44.294Z,80.94
2018-03-22T01:11:12.135Z,81.05
2018-03-22T01:13:39.582Z,81.01
2018-03-22T01:16:07.029Z,80.96
2018-03-22T01:18:34.501Z,80.84
2018-03-22T01:21:01.950Z,81.19
2018-03-22T01:23:29.597Z,81.49
2018-03-22T01:25:57.041Z,81.84
2018-03-22T01:28:24.489Z,81.81
2018-03-22T01:30:51.965Z,82.44
2018-03-22T01:33:19.423Z,83.17
2018-03-22T01:35:46.942Z,82.41
2018-03-22T01:38:14.389Z,82.80
2018-03-22T01:40:41.859Z,82.75
2018-03-22T01:43:09.341Z,82.91
2018-03-22T01:45:36.813Z,83.30
2018-03-22T01:48:04.301Z,83.16
2018-03-22T01:50:31.749Z,82.87
2018-03-22T01:53:11.097Z,82.75
2018-03-22T01:55:38.557Z,82.35
2018-03-22T01:58:06.341Z,82.38
2018-03-22T02:00:33.801Z,82.39
2018-03-22T02:03:01.253Z,82.02
2018-03-22T02:05:28.732Z,82.37
2018-03-22T02:07:56.182Z,82.84
2018-03-22T02:10:23.908Z,82.56
2018-03-22T02:12:51.356Z,82.39
2018-03-22T02:15:18.817Z,81.90
2018-03-22T02:17:46.285Z,82.25
2018-03-22T02:20:13.736Z,82.52
2018-03-22T02:22:41.239Z,82.39
2018-03-22T02:25:08.695Z,81.92
2018-03-22T02:27:36.150Z,81.99
2018-03-22T02:30:03.619Z,82.18
2018-03-22T02:32:31.104Z,82.28
2018-03-22T02:34:58.581Z,82.53
2018-03-22T02:37:26.065Z,82.18
2018-03-22T02:39:53.517Z,82.15
2018-03-22T02:42:21.009Z,82.46
2018-03-22T02:44:48.461Z,82.64
2018-03-22T02:47:15.958Z,82.13
2018-03-22T02:49:43.430Z,81.99
2018-03-22T02:52:10.886Z,82.63
2018-03-22T02:54:38.362Z,82.32
2018-03-22T02:57:05.834Z,82.22
2018-03-22T02:59:33.286Z,82.15
2018-03-22T03:02:00.790Z,82.58
2018-03-22T03:04:28.241Z,82.72
2018-03-22T03:06:55.695Z,82.78
2018-03-22T03:09:23.170Z,82.29
2018-03-22T03:11:50.653Z,82.22
2018-03-22T03:14:18.098Z,82.97
2018-03-22T03:16:45.577Z,82.49
2018-03-22T03:19:13.033Z,82.28
2018-03-22T03:21:40.479Z,82.14
2018-03-22T03:24:08.070Z,82.92
2018-03-22T03:26:35.525Z,83.10
2018-03-22T03:29:02.965Z,82.72
2018-03-22T03:31:30.430Z,82.11
2018-03-22T03:33:57.881Z,81.58
2018-03-22T03:36:25.327Z,81.03
2018-03-22T03:38:52.790Z,81.35
2018-03-22T03:41:20.293Z,81.30
2018-03-22T03:43:47.714Z,81.64
2018-03-22T03:46:15.176Z,81.38
2018-03-22T03:48:42.625Z,81.44
2018-03-22T03:51:10.111Z,81.54
2018-03-22T03:53:37.625Z,81.18
2018-03-22T03:56:05.074Z,81.93
2018-03-22T03:58:32.535Z,82.43
2018-03-22T04:01:00.017Z,81.82
2018-03-22T04:03:27.469Z,81.63
2018-03-22T04:05:54.917Z,80.82
2018-03-22T04:08:22.398Z,80.41
2018-03-22T04:10:49.860Z,79.57
2018-03-22T04:13:17.313Z,78.85
2018-03-22T04:15:44.781Z,79.89
2018-03-22T04:18:12.232Z,80.76
2018-03-22T04:20:39.680Z,80.60
2018-03-22T04:23:07.158Z,80.45
2018-03-22T04:25:34.610Z,80.98
2018-03-22T04:28:02.073Z,80.34
2018-03-22T04:30:29.577Z,78.77
2018-03-22T04:32:57.021Z,77.55
2018-03-22T04:35:24.471Z,76.61
2018-03-22T04:37:51.958Z,77.03
2018-03-22T04:40:19.412Z,77.82
2018-03-22T04:42:46.866Z,79.37
2018-03-22T04:45:14.374Z,79.96
2018-03-22T04:47:41.818Z,80.33
2018-03-22T04:50:09.265Z,80.44
2018-03-22T04:52:36.902Z,80.37
2018-03-22T04:55:04.373Z,80.75
2018-03-22T04:57:31.818Z,81.09
2018-03-22T04:59:59.418Z,81.01
2018-03-22T05:02:26.869Z,81.22
2018-03-22T05:04:54.317Z,81.18
2018-03-22T05:07:22.065Z,81.19
2018-03-22T05:09:49.517Z,81.15
2018-03-22T05:12:16.977Z,82.20
2018-03-22T05:14:44.841Z,82.05
2018-03-22T05:17:12.298Z,82.32
2018-03-22T05:19:39.752Z,83.12
2018-03-22T05:22:07.234Z,83.04
2018-03-22T05:24:34.689Z,82.49
2018-03-22T05:27:02.163Z,82.47
2018-03-22T05:29:29.760Z,81.89
2018-03-22T05:31:57.253Z,81.67
2018-03-22T05:34:24.701Z,80.47
2018-03-22T05:36:52.275Z,79.67
2018-03-22T05:39:19.726Z,79.34
2018-03-22T05:41:47.173Z,79.20
2018-03-22T05:44:14.793Z,79.56
2018-03-22T05:46:42.241Z,80.14
2018-03-22T05:49:09.690Z,78.67
2018-03-22T05:51:37.199Z,79.15
2018-03-22T05:54:04.649Z,79.03
2018-03-22T05:56:32.130Z,79.38
2018-03-22T05:58:59.621Z,79.67
2018-03-22T06:01:27.091Z,78.66
2018-03-22T06:03:54.549Z,78.01
2018-03-22T06:06:22.354Z,77.72
2018-03-22T06:08:49.820Z,76.06
2018-03-22T06:11:17.278Z,75.33
2018-03-22T06:13:44.765Z,74.86
2018-03-22T06:16:12.211Z,74.61
2018-03-22T06:18:39.661Z,74.95
2018-03-22T06:21:07.149Z,74.71
2018-03-22T06:23:34.603Z,73.75
2018-03-22T06:26:02.041Z,73.21
2018-03-22T06:28:29.757Z,72.69
2018-03-22T06:30:57.206Z,71.80
2018-03-22T06:33:24.657Z,70.22
2018-03-22T06:35:52.257Z,70.06
2018-03-22T06:38:19.702Z,69.39
2018-03-22T06:40:47.161Z,69.56
2018-03-22T06:43:14.834Z,69.12
2018-03-22T06:45:42.274Z,69.22
2018-03-22T06:48:09.718Z,68.64
2018-03-22T06:50:37.186Z,68.22
2018-03-22T06:53:04.641Z,68.18
2018-03-22T06:55:32.117Z,67.28
2018-03-22T06:57:59.558Z,67.84
2018-03-22T07:00:26.993Z,68.14
2018-03-22T07:02:54.464Z,67.98
2018-03-22T07:05:21.913Z,67.71
2018-03-22T07:07:49.488Z,68.15
2018-03-22T07:10:16.949Z,68.23
2018-03-22T07:12:44.404Z,68.47
2018-03-22T07:15:11.881Z,67.78
2018-03-22T07:17:39.337Z,67.61
2018-03-22T07:20:06.814Z,67.08
2018-03-22T07:22:34.281Z,67.26
2018-03-22T07:25:01.726Z,67.43
2018-03-22T07:27:29.197Z,66.98
2018-03-22T07:29:56.655Z,66.96
2018-03-22T07:32:24.237Z,66.79
2018-03-22T07:34:51.691Z,66.73
2018-03-22T07:37:19.142Z,67.30
2018-03-22T07:39:46.621Z,67.54
2018-03-22T07:42:14.086Z,67.12
2018-03-22T07:44:41.591Z,67.28
2018-03-22T07:47:09.046Z,67.20
2018-03-22T07:49:36.524Z,67.51
2018-03-22T07:52:03.998Z,66.30
2018-03-22T07:54:31.450Z,66.91
2018-03-22T07:56:59.170Z,67.76
2018-03-22T07:59:26.625Z,67.14
2018-03-22T08:01:54.093Z,67.18
2018-03-22T08:04:21.566Z,67.51
2018-03-22T08:06:49.038Z,67.10
2018-03-22T08:09:16.562Z,67.39
2018-03-22T08:11:44.014Z,67.86
2018-03-22T08:14:11.498Z,68.38
2018-03-22T08:16:38.982Z,68.09
2018-03-22T08:19:06.442Z,68.37
2018-03-22T08:21:34.278Z,68.06
2018-03-22T08:24:01.725Z,67.78
2018-03-22T08:26:29.209Z,69.18
2018-03-22T08:28:56.678Z,68.79
2018-03-22T08:31:24.125Z,69.86
2018-03-22T08:33:51.641Z,70.48
2018-03-22T08:36:19.102Z,71.40
2018-03-22T08:38:47.131Z,72.65
2018-03-22T08:41:14.675Z,72.78
2018-03-22T08:43:42.075Z,74.53
2018-03-22T08:46:09.798Z,73.83
2018-03-22T08:48:37.245Z,75.72
2018-03-22T08:51:04.705Z,77.14
2018-03-22T08:53:32.173Z,79.17
2018-03-22T08:55:59.621Z,79.86
2018-03-22T08:58:27.246Z,80.53
2018-03-22T09:00:54.694Z,81.43
2018-03-22T09:03:22.152Z,82.07
2018-03-22T09:05:49.622Z,83.34
2018-03-22T09:08:17.081Z,84.23
2018-03-22T09:10:44.573Z,84.59
2018-03-22T09:13:12.045Z,85.30
2018-03-22T09:15:39.541Z,85.57
2018-03-22T09:18:07.009Z,85.74
2018-03-22T09:20:34.467Z,86.22
2018-03-22T09:23:01.991Z,86.75
2018-03-22T09:25:29.442Z,86.49
2018-03-22T09:27:56.977Z,86.82
2018-03-22T09:30:24.753Z,85.31
2018-03-22T09:32:52.206Z,86.65
2018-03-22T09:35:19.801Z,86.78
2018-03-22T09:37:47.259Z,88.29
2018-03-22T09:40:14.717Z,88.08
2018-03-22T09:42:42.189Z,88.01
2018-03-22T09:45:09.641Z,89.99
2018-03-22T09:47:37.121Z,90.13
2018-03-22T09:50:04.610Z,89.75
2018-03-22T09:52:33.009Z,90.33
2018-03-22T09:55:00.481Z,89.83
2018-03-22T09:57:27.950Z,89.64
2018-03-22T09:59:55.617Z,90.95
2018-03-22T10:02:23.080Z,89.98
2018-03-22T10:04:50.538Z,89.86
2018-03-22T10:07:18.013Z,89.59
2018-03-22T10:09:45.462Z,90.43
2018-03-22T10:12:12.963Z,89.91
2018-03-22T10:14:40.425Z,90.29
2018-03-22T10:17:07.897Z,90.75
2018-03-22T10:19:35.377Z,91.14
2018-03-22T10:22:02.830Z,90.69
2018-03-22T10:24:30.305Z,90.49
2018-03-22T10:26:57.770Z,90.07
2018-03-22T10:29:25.240Z,90.42
2018-03-22T10:31:52.709Z,89.88
2018-03-22T10:34:20.174Z,89.29
2018-03-22T10:36:47.658Z,89.03
2018-03-22T10:39:15.102Z,90.38
2018-03-22T10:41:42.554Z,88.48
2018-03-22T10:44:10.029Z,88.81
2018-03-22T10:46:37.486Z,89.12
2018-03-22T10:49:05.209Z,89.02
2018-03-22T10:51:32.657Z,88.44
2018-03-22T10:54:00.107Z,87.36
2018-03-22T10:56:28.539Z,86.83
2018-03-22T10:58:55.986Z,86.83
2018-03-22T11:01:29.320Z,87.24
2018-03-22T11:03:56.773Z,88.22
2018-03-22T11:06:24.225Z,86.17
2018-03-22T11:08:51.713Z,85.70
2018-03-22T11:11:19.192Z,86.01
2018-03-22T11:13:47.046Z,86.40
2018-03-22T11:16:14.517Z,86.46
2018-03-22T11:18:41.965Z,87.08
2018-03-22T11:21:09.435Z,86.31
2018-03-22T11:23:36.891Z,87.67
2018-03-22T11:26:04.725Z,86.67
2018-03-22T11:28:32.196Z,87.03
2018-03-22T11:30:59.646Z,86.66
2018-03-22T11:33:27.118Z,86.29
2018-03-22T11:35:54.573Z,86.74
2018-03-22T11:38:22.225Z,85.93
2018-03-22T11:40:49.694Z,84.90
2018-03-22T11:43:17.148Z,84.97
2018-03-22T11:45:44.623Z,85.28
2018-03-22T11:48:12.097Z,84.46
2018-03-22T11:50:39.650Z,85.00
2018-03-22T11:53:07.121Z,85.76
2018-03-22T11:55:34.576Z,85.52
2018-03-22T11:58:02.056Z,85.49
2018-03-22T12:00:29.507Z,86.39
2018-03-22T12:02:57.202Z,85.39
2018-03-22T12:05:24.675Z,84.36
2018-03-22T12:07:52.139Z,84.30
2018-03-22T12:10:19.620Z,85.18
2018-03-22T12:12:47.062Z,85.73
2018-03-22T12:15:14.681Z,85.18
2018-03-22T12:17:42.174Z,84.86
2018-03-22T12:20:09.624Z,83.91
2018-03-22T12:22:37.110Z,85.32
2018-03-22T12:25:04.592Z,86.19
2018-03-22T12:27:32.366Z,85.73
2018-03-22T12:29:59.814Z,84.45
2018-03-22T12:32:27.259Z,85.00
2018-03-22T12:34:54.739Z,85.46
2018-03-22T12:37:22.190Z,84.37
2018-03-22T12:39:49.845Z,84.46
2018-03-22T12:42:17.313Z,84.41
2018-03-22T12:44:44.757Z,84.13
2018-03-22T12:47:12.258Z,84.91
2018-03-22T12:49:39.707Z,84.79
2018-03-22T12:52:07.400Z,86.28
2018-03-22T12:54:34.869Z,85.69
2018-03-22T12:57:02.315Z,86.31
2018-03-22T12:59:29.793Z,86.47
2018-03-22T13:01:57.237Z,87.54
2018-03-22T13:04:24.865Z,87.58
2018-03-22T13:06:52.309Z,86.56
2018-03-22T13:09:19.755Z,86.87
2018-03-22T13:11:47.225Z,87.12
2018-03-22T13:14:14.694Z,87.16
2018-03-22T13:16:42.314Z,87.01
2018-03-22T13:19:09.766Z,87.49
2018-03-22T13:21:37.221Z,86.60
2018-03-22T13:24:04.681Z,86.63
2018-03-22T13:26:32.126Z,87.30
2018-03-22T13:28:59.970Z,87.09
2018-03-22T13:31:27.416Z,86.17
2018-03-22T13:33:54.861Z,85.91
2018-03-22T13:36:22.335Z,86.67
2018-03-22T13:38:49.825Z,86.24
2018-03-22T13:41:17.334Z,85.92
2018-03-22T13:43:44.777Z,87.21
2018-03-22T13:46:12.228Z,87.08
2018-03-22T13:48:39.693Z,86.86
2018-03-22T13:51:07.138Z,87.56
2018-03-22T13:53:34.617Z,87.47
2018-03-22T13:56:02.061Z,87.16
2018-03-22T13:58:29.519Z,87.01
2018-03-22T14:00:56.989Z,85.91
2018-03-22T14:03:24.430Z,86.11
2018-03-22T14:05:51.934Z,86.43
2018-03-22T14:08:19.373Z,86.49
2018-03-22T14:10:46.817Z,86.03
2018-03-22T14:13:14.309Z,84.00
2018-03-22T14:15:41.754Z,84.80
2018-03-22T14:18:09.581Z,85.40
2018-03-22T14:20:37.025Z,85.29
2018-03-22T14:23:04.462Z,84.05
2018-03-22T14:25:31.958Z,84.81
2018-03-22T14:27:59.396Z,84.21
2018-03-22T14:30:26.879Z,84.15
2018-03-22T14:32:54.323Z,84.07
2018-03-22T14:35:21.775Z,84.06
2018-03-22T14:37:49.274Z,84.33
2018-03-22T14:40:16.722Z,84.97
2018-03-22T14:42:44.199Z,85.02
2018-03-22T14:45:11.638Z,86.02
2018-03-22T14:47:39.110Z,85.03
2018-03-22T14:50:06.582Z,84.82
2018-03-22T14:52:34.021Z,84.82
2018-03-22T14:55:01.666Z,85.25
2018-03-22T14:57:29.116Z,85.74
2018-03-22T14:59:56.598Z,86.00
2018-03-22T15:02:24.085Z,85.85
2018-03-22T15:04:51.549Z,86.29
2018-03-22T15:07:19.024Z,85.52
2018-03-22T15:09:46.484Z,85.85
2018-03-22T15:12:13.960Z,85.47
2018-03-22T15:14:41.417Z,85.25
2018-03-22T15:17:08.868Z,85.38
2018-03-22T15:19:36.353Z,85.12
2018-03-22T15:22:03.801Z,85.18
2018-03-22T15:24:31.240Z,84.24
2018-03-22T15:26:58.712Z,85.53
2018-03-22T15:29:26.161Z,85.38
2018-03-22T15:31:53.986Z,85.70
2018-03-22T15:34:21.430Z,85.25
2018-03-22T15:36:48.888Z,85.63
2018-03-22T15:39:16.369Z,86.47
2018-03-22T15:41:43.818Z,86.13
2018-03-22T15:44:11.307Z,86.93
2018-03-22T15:46:38.760Z,86.66
2018-03-22T15:49:06.197Z,86.82
2018-03-22T15:51:33.663Z,86.40
2018-03-22T15:54:01.101Z,87.20
2018-03-22T15:56:28.745Z,87.24
2018-03-22T15:58:56.417Z,87.49
2018-03-22T16:01:23.873Z,85.92
2018-03-22T16:03:51.342Z,86.90
2018-03-22T16:06:18.803Z,86.88
2018-03-22T16:08:46.414Z,86.44
2018-03-22T16:11:13.874Z,86.93
2018-03-22T16:13:41.321Z,86.38
2018-03-22T16:16:08.810Z,85.56
2018-03-22T16:18:36.254Z,85.94
2018-03-22T16:21:03.726Z,85.83
2018-03-22T16:23:31.162Z,85.65
2018-03-22T16:25:58.613Z,86.13
2018-03-22T16:28:26.079Z,86.61
2018-03-22T16:30:53.541Z,86.11
2018-03-22T16:33:21.035Z,86.43
2018-03-22T16:35:48.482Z,85.37
2018-03-22T16:38:15.934Z,85.52
2018-03-22T16:40:43.439Z,85.33
2018-03-22T16:43:11.233Z,86.41
2018-03-22T16:45:38.883Z,86.94
2018-03-22T16:48:06.321Z,86.83
2018-03-22T16:50:33.777Z,86.21
2018-03-22T16:53:01.257Z,86.34
2018-03-22T16:55:28.701Z,85.92
2018-03-22T16:57:56.153Z,85.64
2018-03-22T17:00:23.631Z,84.95
2018-03-22T17:02:51.077Z,86.03
2018-03-22T17:05:18.813Z,85.84
2018-03-22T17:07:46.275Z,85.96
2018-03-22T17:10:13.728Z,85.50
2018-03-22T17:12:41.210Z,85.69
2018-03-22T17:15:08.649Z,84.80
2018-03-22T17:17:36.381Z,85.03
2018-03-22T17:20:03.827Z,84.49
2018-03-22T17:22:31.270Z,85.80
2018-03-22T17:24:58.746Z,85.89
2018-03-22T17:27:26.188Z,86.46
2018-03-22T17:29:53.930Z,86.36
2018-03-22T17:32:21.369Z,86.41
2018-03-22T17:34:49.055Z,86.92
2018-03-22T17:37:16.521Z,87.09
2018-03-22T17:39:43.966Z,87.73
2018-03-22T17:42:11.455Z,87.74
2018-03-22T17:44:38.910Z,87.85
2018-03-22T17:47:07.217Z,88.44
2018-03-22T17:49:34.694Z,88.53
2018-03-22T17:52:02.150Z,89.41
2018-03-22T17:54:29.970Z,89.49
2018-03-22T17:56:57.414Z,89.53
2018-03-22T17:59:24.898Z,89.05
2018-03-22T18:01:52.386Z,88.69
2018-03-22T18:04:19.840Z,88.90
2018-03-22T18:06:47.326Z,88.50
2018-03-22T18:09:14.801Z,88.26
2018-03-22T18:11:42.276Z,87.77
2018-03-22T18:14:09.745Z,87.97
2018-03-22T18:16:37.229Z,87.74
2018-03-22T18:19:04.711Z,87.97
2018-03-22T18:21:32.165Z,88.15
2018-03-22T18:23:59.610Z,88.38
2018-03-22T18:26:27.095Z,88.82
2018-03-22T18:28:54.575Z,88.51
2018-03-22T18:31:22.274Z,88.45
2018-03-22T18:33:49.714Z,88.14
2018-03-22T18:36:17.167Z,88.00
2018-03-22T18:38:44.669Z,88.76
2018-03-22T18:41:12.134Z,88.58
2018-03-22T18:43:39.618Z,88.92
2018-03-22T18:46:07.081Z,88.25
2018-03-22T18:48:34.522Z,88.34
2018-03-22T18:51:02.014Z,88.19
2018-03-22T18:53:29.454Z,88.21
2018-03-22T18:55:57.114Z,88.15
2018-03-22T18:58:24.558Z,87.61
2018-03-22T19:00:52.003Z,87.71
2018-03-22T19:03:19.490Z,87.72
2018-03-22T19:05:46.942Z,87.11
2018-03-22T19:08:14.981Z,86.94
2018-03-22T19:10:42.453Z,87.01
2018-03-22T19:13:09.893Z,86.88
2018-03-22T19:15:37.362Z,86.56
2018-03-22T19:18:04.817Z,86.85
2018-03-22T19:20:32.429Z,87.04
2018-03-22T19:22:59.903Z,87.50
2018-03-22T19:25:27.353Z,87.29
2018-03-22T19:27:54.950Z,87.29
2018-03-22T19:30:22.407Z,87.39
2018-03-22T19:32:50.002Z,87.32
2018-03-22T19:35:17.513Z,87.12
2018-03-22T19:37:45.887Z,87.21
2018-03-22T19:40:13.358Z,87.54
2018-03-22T19:42:40.828Z,87.39
2018-03-22T19:45:08.547Z,87.41
2018-03-22T19:47:35.981Z,87.01
2018-03-22T19:50:04.246Z,86.48
2018-03-22T19:52:31.726Z,87.14
2018-03-22T19:54:59.170Z,86.63
2018-03-22T19:57:26.877Z,86.41
2018-03-22T19:59:54.318Z,86.50
2018-03-22T20:02:21.764Z,86.98
2018-03-22T20:04:49.241Z,86.76
2018-03-22T20:07:18.566Z,86.97
2018-03-22T20:09:46.345Z,86.71
2018-03-22T20:12:13.792Z,86.67
2018-03-22T20:14:41.266Z,86.69
2018-03-22T20:17:08.796Z,86.46
2018-03-22T20:19:36.242Z,86.22
2018-03-22T20:22:03.730Z,86.26
2018-03-22T20:24:31.468Z,86.83
2018-03-22T20:26:58.945Z,87.08
2018-03-22T20:29:26.581Z,87.29
2018-03-22T20:31:54.020Z,86.44
2018-03-22T20:34:22.462Z,86.95
2018-03-22T20:36:49.910Z,87.15
2018-03-22T20:39:17.362Z,87.03
2018-03-22T20:41:44.875Z,86.58
2018-03-22T20:44:17.550Z,86.58
2018-03-22T20:46:47.873Z,86.75
2018-03-22T20:49:15.340Z,86.95
2018-03-22T20:51:42.792Z,86.88
2018-03-22T20:54:10.263Z,86.76
2018-03-22T20:56:37.725Z,86.84
2018-03-22T20:59:05.204Z,87.42
2018-03-22T21:01:32.664Z,87.08
2018-03-22T21:04:00.130Z,86.92
2018-03-22T21:06:27.606Z,87.34
2018-03-22T21:08:55.090Z,87.62
2018-03-22T21:11:22.575Z,87.56
2018-03-22T21:13:50.034Z,87.45
2018-03-22T21:16:17.499Z,87.47
2018-03-22T21:18:44.957Z,87.39
2018-03-22T21:21:12.406Z,87.53
2018-03-22T21:23:39.933Z,88.09
2018-03-22T21:26:07.379Z,88.29
2018-03-22T21:28:34.839Z,88.04
2018-03-22T21:31:02.296Z,88.35
2018-03-22T21:33:29.765Z,88.18
2018-03-22T21:35:57.387Z,88.53
2018-03-22T21:38:24.864Z,88.69
2018-03-22T21:40:52.318Z,87.91
2018-03-22T21:43:19.778Z,87.58
2018-03-22T21:45:47.218Z,87.99
2018-03-22T21:48:14.702Z,87.95
2018-03-22T21:50:48.081Z,88.56
2018-03-22T21:53:15.569Z,89.30
2018-03-22T21:55:43.042Z,89.35
2018-03-22T21:58:10.498Z,89.95
2018-03-22T22:00:37.970Z,89.47
2018-03-22T22:03:05.475Z,89.38
2018-03-22T22:05:33.057Z,88.94
2018-03-22T22:08:00.501Z,89.63
2018-03-22T22:10:27.979Z,89.58
2018-03-22T22:12:55.453Z,89.71
2018-03-22T22:15:22.946Z,89.57
2018-03-22T22:17:50.657Z,89.98
2018-03-22T22:20:18.100Z,90.31
2018-03-22T22:22:45.557Z,90.34
2018-03-22T22:25:13.032Z,90.33
2018-03-22T22:27:40.493Z,89.32
2018-03-22T22:30:07.978Z,89.17
2018-03-22T22:32:35.430Z,89.25
2018-03-22T22:35:02.893Z,88.89
2018-03-22T22:37:30.378Z,89.10
2018-03-22T22:39:57.842Z,88.95
2018-03-22T22:42:25.409Z,88.94
2018-03-22T22:44:52.865Z,88.95
2018-03-22T22:47:20.338Z,89.13
2018-03-22T22:49:47.841Z,89.35
2018-03-22T22:52:15.297Z,89.24
2018-03-22T22:54:43.145Z,89.44
2018-03-22T22:57:10.608Z,89.87
2018-03-22T22:59:38.061Z,89.75
2018-03-22T23:02:05.552Z,89.53
2018-03-22T23:04:33.001Z,89.94
2018-03-22T23:07:00.489Z,90.04
2018-03-22T23:09:27.961Z,89.87
2018-03-22T23:11:55.415Z,89.55
2018-03-22T23:14:22.885Z,89.28
2018-03-22T23:16:50.349Z,89.14
2018-03-22T23:19:17.797Z,89.22
2018-03-22T23:21:45.285Z,89.08
2018-03-22T23:24:12.783Z,89.22
2018-03-22T23:26:40.229Z,89.13
2018-03-22T23:29:07.730Z,89.02
2018-03-22T23:31:35.193Z,88.96
2018-03-22T23:34:02.641Z,89.46
2018-03-22T23:36:30.136Z,89.07
2018-03-22T23:38:57.602Z,89.23
2018-03-22T23:41:25.084Z,89.32
2018-03-22T23:43:52.591Z,90.12
2018-03-22T23:46:20.037Z,90.05
2018-03-22T23:48:47.485Z,90.09
2018-03-22T23:51:14.961Z,90.23
2018-03-22T23:53:42.419Z,90.17
2018-03-22T23:56:09.880Z,90.04
2018-03-22T23:58:37.350Z,90.10
